sensor_id;sensor_type;location;lat;lon;timestamp;pressure;altitude;pressure_sealevel;temperature;humidity
42169;BME280;27838;43.858;25.974;2023-07-20T00:01:50;100507.88;;;30.79;41.17
42169;BME280;27838;43.858;25.974;2023-07-20T00:04:20;100498.22;;;30.77;41.04
42169;BME280;27838;43.858;25.974;2023-07-20T00:06:46;100510.69;;;30.78;40.59
42169;BME280;27838;43.858;25.974;2023-07-20T00:09:13;100504.47;;;30.77;40.59
42169;BME280;27838;43.858;25.974;2023-07-20T00:11:39;100499.56;;;30.61;40.28
42169;BME280;27838;43.858;25.974;2023-07-20T00:14:06;100486.44;;;30.58;40.51
42169;BME280;27838;43.858;25.974;2023-07-20T00:16:33;100509.19;;;30.54;40.34
42169;BME280;27838;43.858;25.974;2023-07-20T00:18:59;100512.44;;;30.58;40.31
42169;BME280;27838;43.858;25.974;2023-07-20T00:21:26;100508.91;;;30.57;40.17
42169;BME280;27838;43.858;25.974;2023-07-20T00:23:52;100508.66;;;30.60;40.03
42169;BME280;27838;43.858;25.974;2023-07-20T00:26:19;100519.59;;;30.68;40.06
42169;BME280;27838;43.858;25.974;2023-07-20T00:28:46;100514.06;;;30.70;40.06
42169;BME280;27838;43.858;25.974;2023-07-20T00:31:12;100499.88;;;30.68;40.02
42169;BME280;27838;43.858;25.974;2023-07-20T00:33:39;100494.66;;;30.66;40.15
42169;BME280;27838;43.858;25.974;2023-07-20T00:36:05;100477.78;;;30.64;40.17
42169;BME280;27838;43.858;25.974;2023-07-20T00:38:32;100475.81;;;30.57;40.53
42169;BME280;27838;43.858;25.974;2023-07-20T00:40:58;100464.59;;;30.52;40.92
42169;BME280;27838;43.858;25.974;2023-07-20T00:43:25;100466.97;;;30.45;41.24
42169;BME280;27838;43.858;25.974;2023-07-20T00:45:51;100450.78;;;30.35;41.50
42169;BME280;27838;43.858;25.974;2023-07-20T00:48:18;100451.88;;;30.33;41.74
42169;BME280;27838;43.858;25.974;2023-07-20T00:50:45;100433.34;;;30.29;41.80
42169;BME280;27838;43.858;25.974;2023-07-20T00:53:13;100425.81;;;30.23;41.98
42169;BME280;27838;43.858;25.974;2023-07-20T00:55:40;100426.09;;;30.20;42.23
42169;BME280;27838;43.858;25.974;2023-07-20T00:58:07;100427.75;;;30.11;42.45
42169;BME280;27838;43.858;25.974;2023-07-20T01:00:34;100417.22;;;29.99;42.49
42169;BME280;27838;43.858;25.974;2023-07-20T01:03:00;100417.34;;;29.97;42.65
42169;BME280;27838;43.858;25.974;2023-07-20T01:05:42;100419.91;;;29.99;42.70
42169;BME280;27838;43.858;25.974;2023-07-20T01:08:18;100405.28;;;29.91;42.69
42169;BME280;27838;43.858;25.974;2023-07-20T01:10:55;100412.44;;;30.02;42.61
42169;BME280;27838;43.858;25.974;2023-07-20T01:13:25;100412.00;;;30.07;42.49
42169;BME280;27838;43.858;25.974;2023-07-20T01:16:00;100407.78;;;30.04;42.63
42169;BME280;27838;43.858;25.974;2023-07-20T01:18:27;100383.00;;;30.01;42.82
42169;BME280;27838;43.858;25.974;2023-07-20T01:20:59;100367.59;;;30.03;42.56
42169;BME280;27838;43.858;25.974;2023-07-20T01:26:43;100315.72;;;30.12;43.52
42169;BME280;27838;43.858;25.974;2023-07-20T01:29:17;100236.19;;;30.00;44.64
42169;BME280;27838;43.858;25.974;2023-07-20T01:31:51;100151.63;;;29.84;45.52
42169;BME280;27838;43.858;25.974;2023-07-20T01:34:19;100159.97;;;29.91;46.22
42169;BME280;27838;43.858;25.974;2023-07-20T01:36:50;100170.44;;;29.94;46.29
42169;BME280;27838;43.858;25.974;2023-07-20T01:39:17;100186.41;;;29.86;47.20
42169;BME280;27838;43.858;25.974;2023-07-20T01:41:44;100221.34;;;29.65;48.29
42169;BME280;27838;43.858;25.974;2023-07-20T01:44:12;100228.97;;;29.60;46.72
42169;BME280;27838;43.858;25.974;2023-07-20T01:46:39;100227.00;;;29.62;46.38
42169;BME280;27838;43.858;25.974;2023-07-20T01:49:05;100216.56;;;29.68;45.70
42169;BME280;27838;43.858;25.974;2023-07-20T01:51:32;100306.13;;;29.58;46.16
42169;BME280;27838;43.858;25.974;2023-07-20T01:53:59;100322.16;;;29.69;46.90
42169;BME280;27838;43.858;25.974;2023-07-20T01:56:26;100329.56;;;29.55;47.18
42169;BME280;27838;43.858;25.974;2023-07-20T01:58:52;100342.28;;;29.53;47.75
42169;BME280;27838;43.858;25.974;2023-07-20T02:01:19;100341.41;;;29.53;47.98
42169;BME280;27838;43.858;25.974;2023-07-20T02:03:45;100335.78;;;29.56;47.52
42169;BME280;27838;43.858;25.974;2023-07-20T02:06:12;100339.72;;;29.52;47.58
42169;BME280;27838;43.858;25.974;2023-07-20T02:08:38;100347.19;;;29.48;48.22
42169;BME280;27838;43.858;25.974;2023-07-20T02:11:05;100362.44;;;29.48;48.55
42169;BME280;27838;43.858;25.974;2023-07-20T02:13:31;100357.59;;;29.42;48.73
42169;BME280;27838;43.858;25.974;2023-07-20T02:15:58;100359.13;;;29.34;49.25
42169;BME280;27838;43.858;25.974;2023-07-20T02:18:24;100355.59;;;29.34;49.14
42169;BME280;27838;43.858;25.974;2023-07-20T02:20:53;100349.16;;;29.25;49.07
42169;BME280;27838;43.858;25.974;2023-07-20T02:23:19;100343.94;;;29.24;48.93
42169;BME280;27838;43.858;25.974;2023-07-20T02:25:46;100344.78;;;29.13;48.33
42169;BME280;27838;43.858;25.974;2023-07-20T02:28:13;100355.28;;;29.16;48.45
42169;BME280;27838;43.858;25.974;2023-07-20T02:30:40;100359.06;;;29.13;48.41
42169;BME280;27838;43.858;25.974;2023-07-20T02:33:07;100369.59;;;29.16;48.51
42169;BME280;27838;43.858;25.974;2023-07-20T02:35:34;100363.56;;;29.13;48.54
42169;BME280;27838;43.858;25.974;2023-07-20T02:38:00;100356.16;;;29.05;48.72
42169;BME280;27838;43.858;25.974;2023-07-20T02:40:27;100358.84;;;29.05;48.65
42169;BME280;27838;43.858;25.974;2023-07-20T02:42:53;100359.63;;;28.96;49.13
42169;BME280;27838;43.858;25.974;2023-07-20T02:45:20;100364.53;;;28.79;49.41
42169;BME280;27838;43.858;25.974;2023-07-20T02:47:46;100373.81;;;28.75;49.59
42169;BME280;27838;43.858;25.974;2023-07-20T02:50:13;100368.09;;;28.69;49.53
42169;BME280;27838;43.858;25.974;2023-07-20T02:52:40;100383.59;;;28.65;49.72
42169;BME280;27838;43.858;25.974;2023-07-20T02:55:06;100383.84;;;28.62;50.00
42169;BME280;27838;43.858;25.974;2023-07-20T02:57:33;100378.34;;;28.63;49.41
42169;BME280;27838;43.858;25.974;2023-07-20T03:00:00;100370.81;;;28.57;49.62
42169;BME280;27838;43.858;25.974;2023-07-20T03:02:26;100373.97;;;28.51;50.00
42169;BME280;27838;43.858;25.974;2023-07-20T03:04:54;100369.72;;;28.37;50.19
42169;BME280;27838;43.858;25.974;2023-07-20T03:07:22;100359.00;;;28.37;50.57
42169;BME280;27838;43.858;25.974;2023-07-20T03:09:49;100369.94;;;28.34;50.49
42169;BME280;27838;43.858;25.974;2023-07-20T03:12:15;100370.09;;;28.33;50.80
42169;BME280;27838;43.858;25.974;2023-07-20T03:14:42;100372.63;;;28.34;50.57
42169;BME280;27838;43.858;25.974;2023-07-20T03:17:08;100369.72;;;28.37;50.38
42169;BME280;27838;43.858;25.974;2023-07-20T03:19:35;100366.56;;;28.32;50.78
42169;BME280;27838;43.858;25.974;2023-07-20T03:22:01;100376.78;;;28.38;50.44
42169;BME280;27838;43.858;25.974;2023-07-20T03:24:28;100380.44;;;28.37;50.51
42169;BME280;27838;43.858;25.974;2023-07-20T03:26:54;100387.00;;;28.44;50.38
42169;BME280;27838;43.858;25.974;2023-07-20T03:29:21;100378.47;;;28.39;51.12
42169;BME280;27838;43.858;25.974;2023-07-20T03:31:47;100387.25;;;28.30;51.23
42169;BME280;27838;43.858;25.974;2023-07-20T03:34:16;100385.81;;;28.26;51.27
42169;BME280;27838;43.858;25.974;2023-07-20T03:36:42;100387.63;;;28.25;51.25
42169;BME280;27838;43.858;25.974;2023-07-20T03:39:09;100387.00;;;28.22;51.11
42169;BME280;27838;43.858;25.974;2023-07-20T03:41:35;100389.09;;;28.30;51.08
42169;BME280;27838;43.858;25.974;2023-07-20T03:44:02;100381.91;;;28.30;51.11
42169;BME280;27838;43.858;25.974;2023-07-20T03:46:29;100381.41;;;28.25;51.02
42169;BME280;27838;43.858;25.974;2023-07-20T03:48:56;100377.06;;;28.24;51.30
42169;BME280;27838;43.858;25.974;2023-07-20T03:51:22;100379.25;;;28.19;51.21
42169;BME280;27838;43.858;25.974;2023-07-20T03:53:49;100365.84;;;28.19;51.12
42169;BME280;27838;43.858;25.974;2023-07-20T03:56:15;100384.50;;;28.20;51.07
42169;BME280;27838;43.858;25.974;2023-07-20T03:58:42;100367.53;;;28.20;51.16
42169;BME280;27838;43.858;25.974;2023-07-20T04:01:09;100365.72;;;28.20;51.37
42169;BME280;27838;43.858;25.974;2023-07-20T04:03:35;100371.81;;;28.22;51.56
42169;BME280;27838;43.858;25.974;2023-07-20T04:06:02;100368.88;;;28.25;51.13
42169;BME280;27838;43.858;25.974;2023-07-20T04:08:28;100361.59;;;28.28;51.40
42169;BME280;27838;43.858;25.974;2023-07-20T04:10:55;100360.59;;;28.29;51.38
42169;BME280;27838;43.858;25.974;2023-07-20T04:13:22;100369.50;;;28.29;51.52
42169;BME280;27838;43.858;25.974;2023-07-20T04:15:48;100350.97;;;28.26;51.59
42169;BME280;27838;43.858;25.974;2023-07-20T04:18:15;100355.63;;;28.24;51.65
42169;BME280;27838;43.858;25.974;2023-07-20T04:20:41;100353.53;;;28.16;52.01
42169;BME280;27838;43.858;25.974;2023-07-20T04:23:08;100358.78;;;28.18;51.66
42169;BME280;27838;43.858;25.974;2023-07-20T04:25:34;100349.78;;;28.19;51.92
42169;BME280;27838;43.858;25.974;2023-07-20T04:28:05;100355.84;;;28.21;51.84
42169;BME280;27838;43.858;25.974;2023-07-20T04:30:35;100351.72;;;28.28;51.51
42169;BME280;27838;43.858;25.974;2023-07-20T04:33:03;100351.34;;;28.33;51.43
42169;BME280;27838;43.858;25.974;2023-07-20T04:35:52;100357.31;;;28.25;51.59
42169;BME280;27838;43.858;25.974;2023-07-20T04:38:19;100368.78;;;28.16;52.05
42169;BME280;27838;43.858;25.974;2023-07-20T04:40:48;100380.44;;;28.15;51.95
42169;BME280;27838;43.858;25.974;2023-07-20T04:43:16;100375.59;;;28.09;52.05
42169;BME280;27838;43.858;25.974;2023-07-20T04:45:43;100376.44;;;28.09;52.11
42169;BME280;27838;43.858;25.974;2023-07-20T04:48:10;100378.75;;;28.02;52.57
42169;BME280;27838;43.858;25.974;2023-07-20T04:50:39;100380.69;;;28.00;52.74
42169;BME280;27838;43.858;25.974;2023-07-20T04:53:06;100388.00;;;27.98;52.72
42169;BME280;27838;43.858;25.974;2023-07-20T04:55:33;100401.09;;;27.90;52.69
42169;BME280;27838;43.858;25.974;2023-07-20T04:58:03;100409.50;;;27.85;53.12
42169;BME280;27838;43.858;25.974;2023-07-20T05:00:31;100405.56;;;27.78;53.00
42169;BME280;27838;43.858;25.974;2023-07-20T05:02:57;100410.69;;;27.81;53.16
42169;BME280;27838;43.858;25.974;2023-07-20T05:05:24;100413.75;;;27.77;53.23
42169;BME280;27838;43.858;25.974;2023-07-20T05:07:50;100428.50;;;27.82;53.40
42169;BME280;27838;43.858;25.974;2023-07-20T05:10:17;100422.91;;;27.85;53.10
42169;BME280;27838;43.858;25.974;2023-07-20T05:12:44;100419.19;;;27.99;53.39
42169;BME280;27838;43.858;25.974;2023-07-20T05:15:10;100425.16;;;28.14;52.89
42169;BME280;27838;43.858;25.974;2023-07-20T05:17:37;100413.69;;;28.12;52.63
42169;BME280;27838;43.858;25.974;2023-07-20T05:20:04;100402.75;;;28.15;52.48
42169;BME280;27838;43.858;25.974;2023-07-20T05:22:32;100423.09;;;28.29;52.45
42169;BME280;27838;43.858;25.974;2023-07-20T05:24:59;100411.63;;;28.27;52.97
42169;BME280;27838;43.858;25.974;2023-07-20T05:27:25;100424.78;;;28.30;52.81
42169;BME280;27838;43.858;25.974;2023-07-20T05:29:52;100422.09;;;28.30;53.11
42169;BME280;27838;43.858;25.974;2023-07-20T05:32:18;100423.94;;;28.30;53.50
42169;BME280;27838;43.858;25.974;2023-07-20T05:34:45;100425.38;;;28.34;53.55
42169;BME280;27838;43.858;25.974;2023-07-20T05:37:11;100424.91;;;28.29;54.27
42169;BME280;27838;43.858;25.974;2023-07-20T05:39:38;100416.00;;;28.39;54.11
42169;BME280;27838;43.858;25.974;2023-07-20T05:42:05;100414.16;;;28.51;54.20
42169;BME280;27838;43.858;25.974;2023-07-20T05:44:31;100412.38;;;28.63;54.08
42169;BME280;27838;43.858;25.974;2023-07-20T05:46:58;100412.09;;;28.77;53.37
42169;BME280;27838;43.858;25.974;2023-07-20T05:49:24;100408.66;;;28.87;53.20
42169;BME280;27838;43.858;25.974;2023-07-20T05:51:51;100401.66;;;28.95;53.34
42169;BME280;27838;43.858;25.974;2023-07-20T05:54:18;100384.13;;;28.91;52.72
42169;BME280;27838;43.858;25.974;2023-07-20T05:56:45;100374.53;;;28.89;52.76
42169;BME280;27838;43.858;25.974;2023-07-20T05:59:12;100362.09;;;28.88;52.46
42169;BME280;27838;43.858;25.974;2023-07-20T06:01:38;100362.56;;;28.93;52.09
42169;BME280;27838;43.858;25.974;2023-07-20T06:04:05;100360.34;;;28.98;52.04
42169;BME280;27838;43.858;25.974;2023-07-20T06:06:31;100360.81;;;29.03;51.88
42169;BME280;27838;43.858;25.974;2023-07-20T06:08:58;100370.03;;;29.10;51.84
42169;BME280;27838;43.858;25.974;2023-07-20T06:11:27;100385.78;;;29.15;51.34
42169;BME280;27838;43.858;25.974;2023-07-20T06:13:54;100384.81;;;29.16;51.74
42169;BME280;27838;43.858;25.974;2023-07-20T06:16:20;100394.91;;;29.24;51.87
42169;BME280;27838;43.858;25.974;2023-07-20T06:18:47;100393.81;;;29.15;51.99
42169;BME280;27838;43.858;25.974;2023-07-20T06:21:14;100380.31;;;29.05;51.68
42169;BME280;27838;43.858;25.974;2023-07-20T06:23:40;100389.13;;;28.96;52.09
42169;BME280;27838;43.858;25.974;2023-07-20T06:26:09;100394.88;;;28.91;52.55
42169;BME280;27838;43.858;25.974;2023-07-20T06:28:36;100391.59;;;28.88;52.35
42169;BME280;27838;43.858;25.974;2023-07-20T06:31:03;100403.75;;;28.92;52.37
42169;BME280;27838;43.858;25.974;2023-07-20T06:33:30;100416.19;;;28.93;52.51
42169;BME280;27838;43.858;25.974;2023-07-20T06:35:57;100407.81;;;28.86;52.90
42169;BME280;27838;43.858;25.974;2023-07-20T06:38:24;100415.59;;;28.89;52.75
42169;BME280;27838;43.858;25.974;2023-07-20T06:40:50;100429.38;;;28.96;52.52
42169;BME280;27838;43.858;25.974;2023-07-20T06:43:17;100429.38;;;28.96;52.36
42169;BME280;27838;43.858;25.974;2023-07-20T06:45:44;100432.78;;;28.98;52.11
42169;BME280;27838;43.858;25.974;2023-07-20T06:48:10;100429.84;;;29.01;52.10
42169;BME280;27838;43.858;25.974;2023-07-20T06:50:37;100441.31;;;29.03;52.03
42169;BME280;27838;43.858;25.974;2023-07-20T06:53:03;100431.03;;;29.08;52.32
42169;BME280;27838;43.858;25.974;2023-07-20T06:55:30;100439.06;;;29.19;51.64
42169;BME280;27838;43.858;25.974;2023-07-20T06:57:56;100434.06;;;29.26;51.46
42169;BME280;27838;43.858;25.974;2023-07-20T07:00:23;100443.63;;;29.40;51.44
42169;BME280;27838;43.858;25.974;2023-07-20T07:02:49;100445.59;;;29.38;50.94
42169;BME280;27838;43.858;25.974;2023-07-20T07:05:16;100443.88;;;29.37;50.82
42169;BME280;27838;43.858;25.974;2023-07-20T07:07:43;100443.13;;;29.46;50.78
42169;BME280;27838;43.858;25.974;2023-07-20T07:10:10;100442.34;;;29.55;51.04
42169;BME280;27838;43.858;25.974;2023-07-20T07:12:36;100438.16;;;29.63;50.68
42169;BME280;27838;43.858;25.974;2023-07-20T07:15:04;100439.78;;;29.75;50.38
42169;BME280;27838;43.858;25.974;2023-07-20T07:17:32;100445.44;;;29.93;50.36
42169;BME280;27838;43.858;25.974;2023-07-20T07:20:00;100451.28;;;29.98;50.25
42169;BME280;27838;43.858;25.974;2023-07-20T07:22:26;100448.34;;;30.01;50.15
42169;BME280;27838;43.858;25.974;2023-07-20T07:24:54;100452.97;;;30.20;49.65
42169;BME280;27838;43.858;25.974;2023-07-20T07:27:21;100441.66;;;30.26;49.45
42169;BME280;27838;43.858;25.974;2023-07-20T07:29:48;100444.31;;;30.38;48.80
42169;BME280;27838;43.858;25.974;2023-07-20T07:32:15;100443.22;;;30.50;48.85
42169;BME280;27838;43.858;25.974;2023-07-20T07:34:43;100438.16;;;30.57;48.64
42169;BME280;27838;43.858;25.974;2023-07-20T07:37:11;100437.91;;;30.69;48.41
42169;BME280;27838;43.858;25.974;2023-07-20T07:39:38;100438.38;;;30.84;48.32
42169;BME280;27838;43.858;25.974;2023-07-20T07:42:05;100436.25;;;30.88;48.14
42169;BME280;27838;43.858;25.974;2023-07-20T07:44:31;100432.84;;;30.86;47.82
42169;BME280;27838;43.858;25.974;2023-07-20T07:46:58;100429.34;;;30.95;47.39
42169;BME280;27838;43.858;25.974;2023-07-20T07:49:24;100436.31;;;31.08;46.96
42169;BME280;27838;43.858;25.974;2023-07-20T07:51:51;100432.59;;;31.09;46.83
42169;BME280;27838;43.858;25.974;2023-07-20T07:54:18;100436.03;;;31.20;46.98
42169;BME280;27838;43.858;25.974;2023-07-20T07:56:44;100432.91;;;31.25;45.93
42169;BME280;27838;43.858;25.974;2023-07-20T07:59:11;100440.72;;;31.28;46.49
42169;BME280;27838;43.858;25.974;2023-07-20T08:01:37;100442.00;;;31.34;46.28
42169;BME280;27838;43.858;25.974;2023-07-20T08:04:04;100439.84;;;31.37;46.20
42169;BME280;27838;43.858;25.974;2023-07-20T08:06:30;100439.59;;;31.40;46.23
42169;BME280;27838;43.858;25.974;2023-07-20T08:08:57;100437.91;;;31.49;45.73
42169;BME280;27838;43.858;25.974;2023-07-20T08:11:24;100435.63;;;31.64;45.74
42169;BME280;27838;43.858;25.974;2023-07-20T08:13:50;100425.25;;;31.69;45.09
42169;BME280;27838;43.858;25.974;2023-07-20T08:16:17;100430.09;;;31.66;44.96
42169;BME280;27838;43.858;25.974;2023-07-20T08:18:44;100427.81;;;31.71;44.89
42169;BME280;27838;43.858;25.974;2023-07-20T08:21:10;100424.41;;;31.69;45.47
42169;BME280;27838;43.858;25.974;2023-07-20T08:23:37;100423.41;;;31.70;45.13
42169;BME280;27838;43.858;25.974;2023-07-20T08:26:05;100413.19;;;31.83;45.23
42169;BME280;27838;43.858;25.974;2023-07-20T08:28:31;100420.66;;;31.99;44.47
42169;BME280;27838;43.858;25.974;2023-07-20T08:30:58;100414.41;;;32.08;44.06
42169;BME280;27838;43.858;25.974;2023-07-20T08:33:24;100419.63;;;32.20;43.81
42169;BME280;27838;43.858;25.974;2023-07-20T08:35:54;100420.03;;;32.25;43.78
42169;BME280;27838;43.858;25.974;2023-07-20T08:38:21;100412.78;;;32.25;43.50
42169;BME280;27838;43.858;25.974;2023-07-20T08:40:48;100422.53;;;32.36;43.35
42169;BME280;27838;43.858;25.974;2023-07-20T08:43:15;100416.25;;;32.45;42.67
42169;BME280;27838;43.858;25.974;2023-07-20T08:45:44;100416.25;;;32.45;42.92
42169;BME280;27838;43.858;25.974;2023-07-20T08:48:12;100407.53;;;32.51;42.91
42169;BME280;27838;43.858;25.974;2023-07-20T08:50:38;100403.66;;;32.64;42.42
42169;BME280;27838;43.858;25.974;2023-07-20T08:53:06;100411.31;;;32.68;41.93
42169;BME280;27838;43.858;25.974;2023-07-20T08:55:34;100402.97;;;32.62;41.49
42169;BME280;27838;43.858;25.974;2023-07-20T08:58:02;100415.16;;;32.66;41.53
42169;BME280;27838;43.858;25.974;2023-07-20T09:00:32;100404.84;;;32.61;41.42
42169;BME280;27838;43.858;25.974;2023-07-20T09:03:01;100405.09;;;32.68;41.68
42169;BME280;27838;43.858;25.974;2023-07-20T09:05:28;100404.84;;;32.79;41.38
42169;BME280;27838;43.858;25.974;2023-07-20T09:07:55;100392.16;;;32.89;40.19
42169;BME280;27838;43.858;25.974;2023-07-20T09:10:23;100400.19;;;32.99;39.66
42169;BME280;27838;43.858;25.974;2023-07-20T09:12:49;100399.41;;;33.07;39.22
42169;BME280;27838;43.858;25.974;2023-07-20T09:15:16;100396.72;;;33.25;39.28
42169;BME280;27838;43.858;25.974;2023-07-20T09:17:51;100399.38;;;33.43;39.27
42169;BME280;27838;43.858;25.974;2023-07-20T09:20:19;100389.19;;;33.55;38.43
42169;BME280;27838;43.858;25.974;2023-07-20T09:22:46;100396.16;;;33.57;38.51
42169;BME280;27838;43.858;25.974;2023-07-20T09:25:18;100398.03;;;33.65;37.81
42169;BME280;27838;43.858;25.974;2023-07-20T09:27:47;100394.59;;;33.73;37.24
42169;BME280;27838;43.858;25.974;2023-07-20T09:30:15;100403.75;;;33.80;37.53
42169;BME280;27838;43.858;25.974;2023-07-20T09:32:44;100397.41;;;33.89;36.85
42169;BME280;27838;43.858;25.974;2023-07-20T09:35:18;100405.41;;;33.99;36.51
42169;BME280;27838;43.858;25.974;2023-07-20T09:37:49;100395.44;;;33.99;36.42
42169;BME280;27838;43.858;25.974;2023-07-20T09:40:18;100396.16;;;34.10;35.88
42169;BME280;27838;43.858;25.974;2023-07-20T09:42:46;100396.47;;;34.07;35.79
42169;BME280;27838;43.858;25.974;2023-07-20T09:45:13;100377.91;;;34.12;35.88
42169;BME280;27838;43.858;25.974;2023-07-20T09:47:40;100367.69;;;34.23;35.52
42169;BME280;27838;43.858;25.974;2023-07-20T09:50:07;100369.38;;;34.24;35.89
42169;BME280;27838;43.858;25.974;2023-07-20T09:52:40;100348.94;;;34.30;35.28
42169;BME280;27838;43.858;25.974;2023-07-20T09:55:07;100337.47;;;34.36;35.28
42169;BME280;27838;43.858;25.974;2023-07-20T09:57:35;100355.25;;;34.47;35.74
42169;BME280;27838;43.858;25.974;2023-07-20T10:00:07;100352.06;;;34.52;35.22
42169;BME280;27838;43.858;25.974;2023-07-20T10:02:42;100343.09;;;34.59;35.38
42169;BME280;27838;43.858;25.974;2023-07-20T10:05:14;100344.81;;;34.60;34.53
42169;BME280;27838;43.858;25.974;2023-07-20T10:07:49;100335.84;;;34.68;34.74
42169;BME280;27838;43.858;25.974;2023-07-20T10:10:17;100321.84;;;34.73;34.10
42169;BME280;27838;43.858;25.974;2023-07-20T10:12:47;100314.72;;;34.72;34.00
42169;BME280;27838;43.858;25.974;2023-07-20T10:15:24;100302.19;;;34.63;34.90
42169;BME280;27838;43.858;25.974;2023-07-20T10:20:30;100298.16;;;34.91;34.73
42169;BME280;27838;43.858;25.974;2023-07-20T10:22:59;100284.81;;;35.06;34.72
42169;BME280;27838;43.858;25.974;2023-07-20T10:25:26;100286.13;;;35.10;34.36
42169;BME280;27838;43.858;25.974;2023-07-20T10:27:53;100272.28;;;35.22;34.32
42169;BME280;27838;43.858;25.974;2023-07-20T10:30:21;100267.16;;;35.35;33.83
42169;BME280;27838;43.858;25.974;2023-07-20T10:32:48;100260.34;;;35.47;33.72
42169;BME280;27838;43.858;25.974;2023-07-20T10:35:17;100255.97;;;35.54;33.16
42169;BME280;27838;43.858;25.974;2023-07-20T10:37:47;100264.75;;;35.57;32.93
42169;BME280;27838;43.858;25.974;2023-07-20T10:40:27;100255.06;;;35.62;32.42
42169;BME280;27838;43.858;25.974;2023-07-20T10:43:00;100250.50;;;35.63;32.95
42169;BME280;27838;43.858;25.974;2023-07-20T10:45:35;100258.44;;;35.81;31.77
42169;BME280;27838;43.858;25.974;2023-07-20T10:48:06;100259.41;;;35.88;31.28
42169;BME280;27838;43.858;25.974;2023-07-20T10:50:33;100254.13;;;35.95;30.90
42169;BME280;27838;43.858;25.974;2023-07-20T10:53:17;100269.34;;;36.04;30.93
42169;BME280;27838;43.858;25.974;2023-07-20T10:55:44;100266.38;;;36.14;31.14
42169;BME280;27838;43.858;25.974;2023-07-20T10:58:15;100258.41;;;36.20;30.90
42169;BME280;27838;43.858;25.974;2023-07-20T11:01:01;100253.97;;;36.27;30.45
42169;BME280;27838;43.858;25.974;2023-07-20T11:03:33;100263.56;;;36.38;30.21
42169;BME280;27838;43.858;25.974;2023-07-20T11:11:27;100246.91;;;36.41;29.65
42169;BME280;27838;43.858;25.974;2023-07-20T11:13:58;100250.50;;;36.42;29.70
42169;BME280;27838;43.858;25.974;2023-07-20T11:16:36;100244.03;;;36.43;29.86
42169;BME280;27838;43.858;25.974;2023-07-20T11:19:04;100255.00;;;36.50;30.76
42169;BME280;27838;43.858;25.974;2023-07-20T11:21:38;100252.81;;;36.45;31.20
42169;BME280;27838;43.858;25.974;2023-07-20T11:24:07;100260.00;;;36.38;30.51
42169;BME280;27838;43.858;25.974;2023-07-20T11:26:51;100256.94;;;36.41;30.87
42169;BME280;27838;43.858;25.974;2023-07-20T11:29:19;100251.94;;;36.29;32.69
42169;BME280;27838;43.858;25.974;2023-07-20T11:31:47;100264.84;;;36.19;33.18
42169;BME280;27838;43.858;25.974;2023-07-20T11:34:17;100251.69;;;36.08;32.98
42169;BME280;27838;43.858;25.974;2023-07-20T11:36:45;100240.38;;;35.96;33.09
42169;BME280;27838;43.858;25.974;2023-07-20T11:39:16;100241.44;;;35.87;32.78
42169;BME280;27838;43.858;25.974;2023-07-20T11:41:52;100245.19;;;35.86;32.86
42169;BME280;27838;43.858;25.974;2023-07-20T11:44:20;100245.38;;;35.84;32.76
42169;BME280;27838;43.858;25.974;2023-07-20T11:47:07;100228.94;;;35.86;32.96
42169;BME280;27838;43.858;25.974;2023-07-20T11:49:38;100209.44;;;35.82;32.72
42169;BME280;27838;43.858;25.974;2023-07-20T11:52:07;100215.59;;;35.76;32.69
42169;BME280;27838;43.858;25.974;2023-07-20T11:54:35;100202.63;;;35.47;33.02
42169;BME280;27838;43.858;25.974;2023-07-20T11:57:02;100189.66;;;35.34;33.34
42169;BME280;27838;43.858;25.974;2023-07-20T11:59:31;100193.41;;;35.25;33.35
42169;BME280;27838;43.858;25.974;2023-07-20T12:02:01;100205.72;;;35.19;33.52
42169;BME280;27838;43.858;25.974;2023-07-20T12:04:30;100206.25;;;35.14;34.09
42169;BME280;27838;43.858;25.974;2023-07-20T12:06:57;100207.28;;;35.05;34.07
42169;BME280;27838;43.858;25.974;2023-07-20T12:09:24;100203.72;;;35.05;34.54
42169;BME280;27838;43.858;25.974;2023-07-20T12:11:50;100194.78;;;35.04;33.89
42169;BME280;27838;43.858;25.974;2023-07-20T12:14:17;100187.38;;;34.90;34.23
42169;BME280;27838;43.858;25.974;2023-07-20T12:16:44;100192.44;;;34.85;34.36
42169;BME280;27838;43.858;25.974;2023-07-20T12:19:13;100183.63;;;34.83;34.29
42169;BME280;27838;43.858;25.974;2023-07-20T12:21:41;100179.56;;;34.95;34.52
42169;BME280;27838;43.858;25.974;2023-07-20T12:24:08;100182.91;;;35.05;35.01
42169;BME280;27838;43.858;25.974;2023-07-20T12:26:38;100189.66;;;35.17;34.18
42169;BME280;27838;43.858;25.974;2023-07-20T12:29:04;100194.91;;;35.27;33.88
42169;BME280;27838;43.858;25.974;2023-07-20T12:31:36;100177.81;;;35.27;32.60
42169;BME280;27838;43.858;25.974;2023-07-20T12:34:03;100189.00;;;35.24;32.66
42169;BME280;27838;43.858;25.974;2023-07-20T12:36:29;100194.41;;;35.15;32.91
42169;BME280;27838;43.858;25.974;2023-07-20T12:38:56;100180.50;;;35.18;33.06
42169;BME280;27838;43.858;25.974;2023-07-20T12:41:23;100191.69;;;35.15;32.53
42169;BME280;27838;43.858;25.974;2023-07-20T12:43:50;100183.28;;;34.94;32.48
42169;BME280;27838;43.858;25.974;2023-07-20T12:46:18;100175.31;;;34.92;32.66
42169;BME280;27838;43.858;25.974;2023-07-20T12:48:44;100188.03;;;34.92;32.56
42169;BME280;27838;43.858;25.974;2023-07-20T12:51:11;100190.22;;;34.88;32.52
42169;BME280;27838;43.858;25.974;2023-07-20T12:53:38;100184.81;;;34.80;32.73
42169;BME280;27838;43.858;25.974;2023-07-20T12:56:05;100194.81;;;34.79;32.78